sensor_id;sensor_type;location;lat;lon;timestamp;temperature;humidity
22337;DHT22;14992;50.844;4.418;2023-05-17T00:00:08;11.20;99.90
22337;DHT22;14992;50.844;4.418;2023-05-17T00:02:37;10.90;99.90
22337;DHT22;14992;50.844;4.418;2023-05-17T00:05:07;11.00;99.90
22337;DHT22;14992;50.844;4.418;2023-05-17T00:07:39;11.20;99.90
22337;DHT22;14992;50.844;4.418;2023-05-17T00:10:08;11.00;99.90
22337;DHT22;14992;50.844;4.418;2023-05-17T00:12:37;10.80;99.90
22337;DHT22;14992;50.844;4.418;2023-05-17T00:15:07;10.70;99.90
22337;DHT22;14992;50.844;4.418;2023-05-17T00:17:36;10.60;99.90
22337;DHT22;14992;50.844;4.418;2023-05-17T00:20:06;10.70;99.90
22337;DHT22;14992;50.844;4.418;2023-05-17T00:22:35;10.80;99.90
22337;DHT22;14992;50.844;4.418;2023-05-17T00:25:07;11.00;99.90
22337;DHT22;14992;50.844;4.418;2023-05-17T00:27:36;10.90;99.90
22337;DHT22;14992;50.844;4.418;2023-05-17T00:30:06;10.80;99.90
22337;DHT22;14992;50.844;4.418;2023-05-17T00:32:36;10.90;99.90
22337;DHT22;14992;50.844;4.418;2023-05-17T00:35:06;10.90;99.90
22337;DHT22;14992;50.844;4.418;2023-05-17T00:37:35;10.70;99.90
22337;DHT22;14992;50.844;4.418;2023-05-17T00:40:06;10.70;99.90
22337;DHT22;14992;50.844;4.418;2023-05-17T00:42:36;10.80;99.90
22337;DHT22;14992;50.844;4.418;2023-05-17T00:45:06;10.80;99.90
22337;DHT22;14992;50.844;4.418;2023-05-17T00:47:35;10.90;99.90
22337;DHT22;14992;50.844;4.418;2023-05-17T00:50:05;11.00;99.90
22337;DHT22;14992;50.844;4.418;2023-05-17T00:52:34;10.80;99.90
22337;DHT22;14992;50.844;4.418;2023-05-17T00:55:03;10.60;99.90
22337;DHT22;14992;50.844;4.418;2023-05-17T00:57:34;10.60;99.90
22337;DHT22;14992;50.844;4.418;2023-05-17T01:00:04;10.50;99.90
22337;DHT22;14992;50.844;4.418;2023-05-17T01:02:33;10.50;99.90
22337;DHT22;14992;50.844;4.418;2023-05-17T01:05:03;10.70;99.90
22337;DHT22;14992;50.844;4.418;2023-05-17T01:07:34;10.70;99.90
22337;DHT22;14992;50.844;4.418;2023-05-17T01:10:05;10.60;99.90
22337;DHT22;14992;50.844;4.418;2023-05-17T01:12:44;10.40;99.90
22337;DHT22;14992;50.844;4.418;2023-05-17T01:15:21;10.50;99.90
22337;DHT22;14992;50.844;4.418;2023-05-17T01:18:01;10.70;99.90
22337;DHT22;14992;50.844;4.418;2023-05-17T01:20:35;10.80;99.90
22337;DHT22;14992;50.844;4.418;2023-05-17T01:23:26;10.70;99.90
22337;DHT22;14992;50.844;4.418;2023-05-17T01:26:05;10.60;99.90
22337;DHT22;14992;50.844;4.418;2023-05-17T01:28:37;10.80;99.90
22337;DHT22;14992;50.844;4.418;2023-05-17T01:31:07;10.70;99.90
22337;DHT22;14992;50.844;4.418;2023-05-17T01:33:37;10.70;99.90
22337;DHT22;14992;50.844;4.418;2023-05-17T01:36:08;10.80;99.90
22337;DHT22;14992;50.844;4.418;2023-05-17T01:38:37;10.60;99.90
22337;DHT22;14992;50.844;4.418;2023-05-17T01:41:14;10.70;99.90
22337;DHT22;14992;50.844;4.418;2023-05-17T01:43:50;10.70;99.90
22337;DHT22;14992;50.844;4.418;2023-05-17T01:46:26;10.70;99.90
22337;DHT22;14992;50.844;4.418;2023-05-17T01:49:05;10.60;99.90
22337;DHT22;14992;50.844;4.418;2023-05-17T01:51:41;10.60;99.90
22337;DHT22;14992;50.844;4.418;2023-05-17T01:54:13;10.50;99.90
22337;DHT22;14992;50.844;4.418;2023-05-17T01:56:49;10.50;99.90
22337;DHT22;14992;50.844;4.418;2023-05-17T01:59:22;10.60;99.90
22337;DHT22;14992;50.844;4.418;2023-05-17T02:01:56;10.60;99.90
22337;DHT22;14992;50.844;4.418;2023-05-17T02:04:30;10.60;99.90
22337;DHT22;14992;50.844;4.418;2023-05-17T02:07:01;10.60;99.90
22337;DHT22;14992;50.844;4.418;2023-05-17T02:09:30;10.60;99.90
22337;DHT22;14992;50.844;4.418;2023-05-17T02:12:05;10.60;99.90
22337;DHT22;14992;50.844;4.418;2023-05-17T02:14:36;10.80;99.90
22337;DHT22;14992;50.844;4.418;2023-05-17T02:17:05;10.90;99.90
22337;DHT22;14992;50.844;4.418;2023-05-17T02:19:35;11.10;99.90
22337;DHT22;14992;50.844;4.418;2023-05-17T02:22:06;11.10;99.90
22337;DHT22;14992;50.844;4.418;2023-05-17T02:24:35;10.90;99.90
22337;DHT22;14992;50.844;4.418;2023-05-17T02:27:05;11.00;99.90
22337;DHT22;14992;50.844;4.418;2023-05-17T02:29:34;11.00;99.90
22337;DHT22;14992;50.844;4.418;2023-05-17T02:32:05;10.90;99.90
22337;DHT22;14992;50.844;4.418;2023-05-17T02:34:34;10.90;99.90
22337;DHT22;14992;50.844;4.418;2023-05-17T02:37:03;10.90;99.90
22337;DHT22;14992;50.844;4.418;2023-05-17T02:39:32;10.90;99.90
22337;DHT22;14992;50.844;4.418;2023-05-17T02:42:01;10.90;99.90
22337;DHT22;14992;50.844;4.418;2023-05-17T02:44:30;10.80;99.90
22337;DHT22;14992;50.844;4.418;2023-05-17T02:46:58;10.80;99.90
22337;DHT22;14992;50.844;4.418;2023-05-17T02:49:31;10.70;99.90
22337;DHT22;14992;50.844;4.418;2023-05-17T02:52:00;10.70;99.90
22337;DHT22;14992;50.844;4.418;2023-05-17T02:54:29;10.80;99.90
22337;DHT22;14992;50.844;4.418;2023-05-17T02:56:58;10.90;99.90
22337;DHT22;14992;50.844;4.418;2023-05-17T02:59:27;11.10;99.90
22337;DHT22;14992;50.844;4.418;2023-05-17T03:01:56;11.00;99.90
22337;DHT22;14992;50.844;4.418;2023-05-17T03:04:25;10.90;99.90
22337;DHT22;14992;50.844;4.418;2023-05-17T03:06:56;10.90;99.90
22337;DHT22;14992;50.844;4.418;2023-05-17T03:09:26;10.90;99.90
22337;DHT22;14992;50.844;4.418;2023-05-17T03:11:57;10.80;99.90
22337;DHT22;14992;50.844;4.418;2023-05-17T03:14:29;10.80;99.90
22337;DHT22;14992;50.844;4.418;2023-05-17T03:16:59;10.90;99.90
22337;DHT22;14992;50.844;4.418;2023-05-17T03:19:28;11.00;99.90
22337;DHT22;14992;50.844;4.418;2023-05-17T03:21:58;10.90;99.90
22337;DHT22;14992;50.844;4.418;2023-05-17T03:24:27;10.80;99.90
22337;DHT22;14992;50.844;4.418;2023-05-17T03:26:56;11.00;99.90
22337;DHT22;14992;50.844;4.418;2023-05-17T03:29:25;10.80;99.90
22337;DHT22;14992;50.844;4.418;2023-05-17T03:31:54;10.80;99.90
22337;DHT22;14992;50.844;4.418;2023-05-17T03:34:23;10.90;99.90
22337;DHT22;14992;50.844;4.418;2023-05-17T03:36:52;10.80;99.90
22337;DHT22;14992;50.844;4.418;2023-05-17T03:39:23;11.00;99.90
22337;DHT22;14992;50.844;4.418;2023-05-17T03:41:52;11.10;99.90
22337;DHT22;14992;50.844;4.418;2023-05-17T03:44:22;11.10;99.90
22337;DHT22;14992;50.844;4.418;2023-05-17T03:46:52;11.10;99.90
22337;DHT22;14992;50.844;4.418;2023-05-17T03:49:22;11.00;99.90
22337;DHT22;14992;50.844;4.418;2023-05-17T03:51:54;11.00;99.90
22337;DHT22;14992;50.844;4.418;2023-05-17T03:54:25;11.00;99.90
22337;DHT22;14992;50.844;4.418;2023-05-17T03:56:54;11.00;99.90
22337;DHT22;14992;50.844;4.418;2023-05-17T03:59:23;11.00;99.90
22337;DHT22;14992;50.844;4.418;2023-05-17T04:01:52;10.90;99.90
22337;DHT22;14992;50.844;4.418;2023-05-17T04:04:21;10.90;99.90
22337;DHT22;14992;50.844;4.418;2023-05-17T04:06:50;11.00;99.90
22337;DHT22;14992;50.844;4.418;2023-05-17T04:09:19;11.00;99.90
22337;DHT22;14992;50.844;4.418;2023-05-17T04:11:50;11.10;99.90
22337;DHT22;14992;50.844;4.418;2023-05-17T04:14:19;11.20;99.90
22337;DHT22;14992;50.844;4.418;2023-05-17T04:16:49;11.10;99.90
22337;DHT22;14992;50.844;4.418;2023-05-17T04:19:18;11.10;99.90
22337;DHT22;14992;50.844;4.418;2023-05-17T04:21:49;11.00;99.90
22337;DHT22;14992;50.844;4.418;2023-05-17T04:24:21;11.10;99.90
22337;DHT22;14992;50.844;4.418;2023-05-17T04:26:53;11.20;99.90
22337;DHT22;14992;50.844;4.418;2023-05-17T04:29:24;11.20;99.90
22337;DHT22;14992;50.844;4.418;2023-05-17T04:31:53;11.20;99.90
22337;DHT22;14992;50.844;4.418;2023-05-17T04:34:22;11.20;99.90
22337;DHT22;14992;50.844;4.418;2023-05-17T04:36:54;11.20;99.90
22337;DHT22;14992;50.844;4.418;2023-05-17T04:39:23;11.40;99.90
22337;DHT22;14992;50.844;4.418;2023-05-17T04:41:53;11.50;99.90
22337;DHT22;14992;50.844;4.418;2023-05-17T04:44:22;11.60;99.90
22337;DHT22;14992;50.844;4.418;2023-05-17T04:46:52;11.60;99.90
22337;DHT22;14992;50.844;4.418;2023-05-17T04:49:21;11.50;99.90
22337;DHT22;14992;50.844;4.418;2023-05-17T04:51:52;11.70;99.90
22337;DHT22;14992;50.844;4.418;2023-05-17T04:54:22;11.90;99.90
22337;DHT22;14992;50.844;4.418;2023-05-17T04:56:52;12.00;99.90
22337;DHT22;14992;50.844;4.418;2023-05-17T04:59:41;12.10;99.90
22337;DHT22;14992;50.844;4.418;2023-05-17T05:02:10;12.10;99.90
22337;DHT22;14992;50.844;4.418;2023-05-17T05:04:40;12.30;99.90
22337;DHT22;14992;50.844;4.418;2023-05-17T05:07:11;12.40;99.90
22337;DHT22;14992;50.844;4.418;2023-05-17T05:09:41;12.40;99.90
22337;DHT22;14992;50.844;4.418;2023-05-17T05:12:12;12.30;99.90
22337;DHT22;14992;50.844;4.418;2023-05-17T05:14:42;12.00;99.90
22337;DHT22;14992;50.844;4.418;2023-05-17T05:17:11;11.90;99.90
22337;DHT22;14992;50.844;4.418;2023-05-17T05:19:41;12.20;99.90
22337;DHT22;14992;50.844;4.418;2023-05-17T05:22:10;12.40;99.90
22337;DHT22;14992;50.844;4.418;2023-05-17T05:24:40;12.50;99.90
22337;DHT22;14992;50.844;4.418;2023-05-17T05:27:09;12.50;99.90
22337;DHT22;14992;50.844;4.418;2023-05-17T05:29:39;12.60;99.90
22337;DHT22;14992;50.844;4.418;2023-05-17T05:32:09;12.50;99.90
22337;DHT22;14992;50.844;4.418;2023-05-17T05:34:43;12.50;99.90
22337;DHT22;14992;50.844;4.418;2023-05-17T05:37:13;12.50;99.90
22337;DHT22;14992;50.844;4.418;2023-05-17T05:39:45;12.70;99.90
22337;DHT22;14992;50.844;4.418;2023-05-17T05:42:14;12.40;99.90
22337;DHT22;14992;50.844;4.418;2023-05-17T05:44:45;12.30;99.90
22337;DHT22;14992;50.844;4.418;2023-05-17T05:47:15;12.50;99.90
22337;DHT22;14992;50.844;4.418;2023-05-17T05:49:44;12.30;99.90
22337;DHT22;14992;50.844;4.418;2023-05-17T05:52:13;12.40;99.90
22337;DHT22;14992;50.844;4.418;2023-05-17T05:54:43;12.60;99.90
22337;DHT22;14992;50.844;4.418;2023-05-17T05:57:12;12.80;99.90
22337;DHT22;14992;50.844;4.418;2023-05-17T05:59:41;13.10;99.90
22337;DHT22;14992;50.844;4.418;2023-05-17T06:02:12;13.30;99.90
22337;DHT22;14992;50.844;4.418;2023-05-17T06:04:41;13.50;99.90
22337;DHT22;14992;50.844;4.418;2023-05-17T06:07:12;13.50;99.90
22337;DHT22;14992;50.844;4.418;2023-05-17T06:09:41;13.20;99.90
22337;DHT22;14992;50.844;4.418;2023-05-17T06:12:10;13.10;99.90
22337;DHT22;14992;50.844;4.418;2023-05-17T06:14:39;13.40;99.90
22337;DHT22;14992;50.844;4.418;2023-05-17T06:17:08;13.50;99.90
22337;DHT22;14992;50.844;4.418;2023-05-17T06:19:39;13.40;99.90
22337;DHT22;14992;50.844;4.418;2023-05-17T06:22:08;13.30;99.90
22337;DHT22;14992;50.844;4.418;2023-05-17T06:24:37;13.40;99.90
22337;DHT22;14992;50.844;4.418;2023-05-17T06:27:06;13.50;99.90
22337;DHT22;14992;50.844;4.418;2023-05-17T06:29:35;13.50;99.90
22337;DHT22;14992;50.844;4.418;2023-05-17T06:32:04;13.80;99.90
22337;DHT22;14992;50.844;4.418;2023-05-17T06:34:34;13.90;99.90
22337;DHT22;14992;50.844;4.418;2023-05-17T06:37:04;14.00;99.90
22337;DHT22;14992;50.844;4.418;2023-05-17T06:39:34;14.20;99.90
22337;DHT22;14992;50.844;4.418;2023-05-17T06:42:03;13.90;99.90
22337;DHT22;14992;50.844;4.418;2023-05-17T06:44:35;14.00;99.90
22337;DHT22;14992;50.844;4.418;2023-05-17T06:47:04;14.10;99.90
22337;DHT22;14992;50.844;4.418;2023-05-17T06:49:33;14.40;99.90
22337;DHT22;14992;50.844;4.418;2023-05-17T06:52:04;14.40;99.90
22337;DHT22;14992;50.844;4.418;2023-05-17T06:54:33;14.30;99.90
22337;DHT22;14992;50.844;4.418;2023-05-17T06:57:02;14.30;99.90
22337;DHT22;14992;50.844;4.418;2023-05-17T06:59:31;14.30;99.90
22337;DHT22;14992;50.844;4.418;2023-05-17T07:02:00;13.90;99.90
22337;DHT22;14992;50.844;4.418;2023-05-17T07:04:29;13.80;99.90
22337;DHT22;14992;50.844;4.418;2023-05-17T07:06:58;13.80;99.90
22337;DHT22;14992;50.844;4.418;2023-05-17T07:09:29;13.90;99.90
22337;DHT22;14992;50.844;4.418;2023-05-17T07:11:57;13.80;99.90
22337;DHT22;14992;50.844;4.418;2023-05-17T07:14:26;14.20;99.90
22337;DHT22;14992;50.844;4.418;2023-05-17T07:16:56;14.30;99.90
22337;DHT22;14992;50.844;4.418;2023-05-17T07:19:24;14.40;99.90
22337;DHT22;14992;50.844;4.418;2023-05-17T07:21:54;14.50;99.90
22337;DHT22;14992;50.844;4.418;2023-05-17T07:24:23;14.80;99.90
22337;DHT22;14992;50.844;4.418;2023-05-17T07:26:53;14.90;99.90
22337;DHT22;14992;50.844;4.418;2023-05-17T07:29:26;14.80;99.90
22337;DHT22;14992;50.844;4.418;2023-05-17T07:31:55;14.70;99.90
22337;DHT22;14992;50.844;4.418;2023-05-17T07:34:24;14.70;99.90
22337;DHT22;14992;50.844;4.418;2023-05-17T07:36:53;15.00;99.90
22337;DHT22;14992;50.844;4.418;2023-05-17T07:39:22;15.00;99.90
22337;DHT22;14992;50.844;4.418;2023-05-17T07:41:52;15.00;99.90
22337;DHT22;14992;50.844;4.418;2023-05-17T07:44:22;15.30;99.90
22337;DHT22;14992;50.844;4.418;2023-05-17T07:46:51;15.10;99.90
22337;DHT22;14992;50.844;4.418;2023-05-17T07:49:21;14.80;99.90
22337;DHT22;14992;50.844;4.418;2023-05-17T07:51:50;14.70;99.90
22337;DHT22;14992;50.844;4.418;2023-05-17T07:54:23;14.80;99.90
22337;DHT22;14992;50.844;4.418;2023-05-17T07:56:55;15.10;99.90
22337;DHT22;14992;50.844;4.418;2023-05-17T07:59:24;15.40;99.90
22337;DHT22;14992;50.844;4.418;2023-05-17T08:01:53;15.40;99.90
22337;DHT22;14992;50.844;4.418;2023-05-17T08:04:22;15.10;99.90
22337;DHT22;14992;50.844;4.418;2023-05-17T08:06:51;15.10;99.90
22337;DHT22;14992;50.844;4.418;2023-05-17T08:09:22;14.80;99.90
22337;DHT22;14992;50.844;4.418;2023-05-17T08:11:51;14.90;99.90
22337;DHT22;14992;50.844;4.418;2023-05-17T08:14:21;14.70;99.90
22337;DHT22;14992;50.844;4.418;2023-05-17T08:16:51;14.90;99.90
22337;DHT22;14992;50.844;4.418;2023-05-17T08:19:19;15.10;99.90
22337;DHT22;14992;50.844;4.418;2023-05-17T08:21:49;15.20;99.90
22337;DHT22;14992;50.844;4.418;2023-05-17T08:24:18;15.20;99.90
22337;DHT22;14992;50.844;4.418;2023-05-17T08:26:48;15.10;99.90
22337;DHT22;14992;50.844;4.418;2023-05-17T08:29:17;15.00;99.90
22337;DHT22;14992;50.844;4.418;2023-05-17T08:31:48;15.00;99.90
22337;DHT22;14992;50.844;4.418;2023-05-17T08:34:18;14.80;99.90
22337;DHT22;14992;50.844;4.418;2023-05-17T08:36:47;14.70;99.90
22337;DHT22;14992;50.844;4.418;2023-05-17T08:39:16;14.50;99.90
22337;DHT22;14992;50.844;4.418;2023-05-17T08:41:47;14.50;99.90
22337;DHT22;14992;50.844;4.418;2023-05-17T08:44:16;14.70;99.90
22337;DHT22;14992;50.844;4.418;2023-05-17T08:46:47;14.70;99.90
22337;DHT22;14992;50.844;4.418;2023-05-17T08:49:21;14.90;99.90
22337;DHT22;14992;50.844;4.418;2023-05-17T08:51:52;15.10;99.90
22337;DHT22;14992;50.844;4.418;2023-05-17T08:54:21;15.30;99.90
22337;DHT22;14992;50.844;4.418;2023-05-17T08:56:53;15.40;99.90
22337;DHT22;14992;50.844;4.418;2023-05-17T08:59:26;15.50;99.90
22337;DHT22;14992;50.844;4.418;2023-05-17T09:02:05;15.60;99.90
22337;DHT22;14992;50.844;4.418;2023-05-17T09:04:36;15.70;99.90
22337;DHT22;14992;50.844;4.418;2023-05-17T09:07:06;15.90;99.90
22337;DHT22;14992;50.844;4.418;2023-05-17T09:09:35;16.00;99.90
22337;DHT22;14992;50.844;4.418;2023-05-17T09:12:05;15.80;99.90
22337;DHT22;14992;50.844;4.418;2023-05-17T09:14:35;15.90;99.90
22337;DHT22;14992;50.844;4.418;2023-05-17T09:17:06;16.00;99.90
22337;DHT22;14992;50.844;4.418;2023-05-17T09:19:42;15.80;99.90
22337;DHT22;14992;50.844;4.418;2023-05-17T09:22:14;15.80;99.90
22337;DHT22;14992;50.844;4.418;2023-05-17T09:24:52;15.70;99.90
22337;DHT22;14992;50.844;4.418;2023-05-17T09:27:49;15.70;99.90
22337;DHT22;14992;50.844;4.418;2023-05-17T09:30:43;15.60;99.90
22337;DHT22;14992;50.844;4.418;2023-05-17T09:33:23;15.60;99.90
22337;DHT22;14992;50.844;4.418;2023-05-17T09:36:10;15.40;99.90
22337;DHT22;14992;50.844;4.418;2023-05-17T09:38:55;15.20;99.90
22337;DHT22;14992;50.844;4.418;2023-05-17T09:41:25;15.20;99.90
22337;DHT22;14992;50.844;4.418;2023-05-17T09:43:57;15.00;99.90
22337;DHT22;14992;50.844;4.418;2023-05-17T09:46:27;15.10;99.90
22337;DHT22;14992;50.844;4.418;2023-05-17T09:49:00;15.20;99.90
22337;DHT22;14992;50.844;4.418;2023-05-17T09:51:33;15.50;99.90
22337;DHT22;14992;50.844;4.418;2023-05-17T09:54:04;15.60;99.90
22337;DHT22;14992;50.844;4.418;2023-05-17T09:56:34;15.70;99.90
22337;DHT22;14992;50.844;4.418;2023-05-17T09:59:09;15.80;99.90
22337;DHT22;14992;50.844;4.418;2023-05-17T10:01:40;16.30;99.90
22337;DHT22;14992;50.844;4.418;2023-05-17T10:04:11;16.70;99.90
22337;DHT22;14992;50.844;4.418;2023-05-17T10:06:41;16.60;99.90
22337;DHT22;14992;50.844;4.418;2023-05-17T10:09:21;16.50;99.90
22337;DHT22;14992;50.844;4.418;2023-05-17T10:11:51;16.20;99.90
22337;DHT22;14992;50.844;4.418;2023-05-17T10:14:27;16.20;99.90
22337;DHT22;14992;50.844;4.418;2023-05-17T10:16:59;16.50;99.90
22337;DHT22;14992;50.844;4.418;2023-05-17T10:19:32;16.60;99.90
22337;DHT22;14992;50.844;4.418;2023-05-17T10:22:01;16.40;99.90
22337;DHT22;14992;50.844;4.418;2023-05-17T10:24:49;16.40;99.90
22337;DHT22;14992;50.844;4.418;2023-05-17T10:27:19;16.90;99.90
22337;DHT22;14992;50.844;4.418;2023-05-17T10:29:49;16.80;99.90
22337;DHT22;14992;50.844;4.418;2023-05-17T10:32:20;16.50;99.90
22337;DHT22;14992;50.844;4.418;2023-05-17T10:34:56;16.40;99.90
22337;DHT22;14992;50.844;4.418;2023-05-17T10:37:39;16.60;99.90
22337;DHT22;14992;50.844;4.418;2023-05-17T10:40:09;16.70;99.90
22337;DHT22;14992;50.844;4.418;2023-05-17T10:42:42;16.80;99.90
22337;DHT22;14992;50.844;4.418;2023-05-17T10:45:12;16.60;99.90
22337;DHT22;14992;50.844;4.418;2023-05-17T10:47:42;16.60;99.90
22337;DHT22;14992;50.844;4.418;2023-05-17T10:50:21;16.90;99.90
22337;DHT22;14992;50.844;4.418;2023-05-17T10:52:51;17.00;99.90
22337;DHT22;14992;50.844;4.418;2023-05-17T10:55:25;17.10;99.90
22337;DHT22;14992;50.844;4.418;2023-05-17T10:58:14;17.30;99.90
22337;DHT22;14992;50.844;4.418;2023-05-17T11:00:45;17.30;97.60
22337;DHT22;14992;50.844;4.418;2023-05-17T11:03:16;17.10;96.80
22337;DHT22;14992;50.844;4.418;2023-05-17T11:06:16;17.00;96.90
22337;DHT22;14992;50.844;4.418;2023-05-17T11:09:12;17.10;97.70
22337;DHT22;14992;50.844;4.418;2023-05-17T11:12:05;17.10;98.20
22337;DHT22;14992;50.844;4.418;2023-05-17T11:14:50;17.60;97.20
22337;DHT22;14992;50.844;4.418;2023-05-17T11:17:20;17.60;95.60
22337;DHT22;14992;50.844;4.418;2023-05-17T11:20:01;17.40;96.70
22337;DHT22;14992;50.844;4.418;2023-05-17T11:22:36;17.00;98.10
22337;DHT22;14992;50.844;4.418;2023-05-17T11:25:07;16.80;99.10
22337;DHT22;14992;50.844;4.418;2023-05-17T11:27:38;16.80;99.00
22337;DHT22;14992;50.844;4.418;2023-05-17T11:30:14;16.90;98.90
22337;DHT22;14992;50.844;4.418;2023-05-17T11:32:52;17.00;97.70
22337;DHT22;14992;50.844;4.418;2023-05-17T11:35:25;16.80;98.20
22337;DHT22;14992;50.844;4.418;2023-05-17T11:40:39;16.60;98.90
22337;DHT22;14992;50.844;4.418;2023-05-17T11:43:13;16.70;99.20
22337;DHT22;14992;50.844;4.418;2023-05-17T11:45:43;17.00;98.60
22337;DHT22;14992;50.844;4.418;2023-05-17T11:48:13;17.20;97.70
22337;DHT22;14992;50.844;4.418;2023-05-17T11:50:44;17.30;96.50
22337;DHT22;14992;50.844;4.418;2023-05-17T11:53:14;17.30;96.90
22337;DHT22;14992;50.844;4.418;2023-05-17T11:55:46;17.00;96.80
22337;DHT22;14992;50.844;4.418;2023-05-17T11:58:18;17.10;97.10
22337;DHT22;14992;50.844;4.418;2023-05-17T12:00:52;17.20;95.40
22337;DHT22;14992;50.844;4.418;2023-05-17T12:03:22;17.50;93.90
22337;DHT22;14992;50.844;4.418;2023-05-17T12:06:01;17.80;92.30
22337;DHT22;14992;50.844;4.418;2023-05-17T12:08:32;17.50;93.50
22337;DHT22;14992;50.844;4.418;2023-05-17T12:11:04;17.30;92.80
22337;DHT22;14992;50.844;4.418;2023-05-17T12:32:31;17.60;91.10
22337;DHT22;14992;50.844;4.418;2023-05-17T12:39:38;17.30;91.30
22337;DHT22;14992;50.844;4.418;2023-05-17T12:42:08;17.60;90.90
22337;DHT22;14992;50.844;4.418;2023-05-17T12:44:38;17.50;90.00
22337;DHT22;14992;50.844;4.418;2023-05-17T12:47:09;17.20;88.40
22337;DHT22;14992;50.844;4.418;2023-05-17T12:49:52;17.20;90.30
22337;DHT22;14992;50.844;4.418;2023-05-17T12:52:21;17.40;91.00
22337;DHT22;14992;50.844;4.418;2023-05-17T12:54:50;17.40;89.70
22337;DHT22;14992;50.844;4.418;2023-05-17T12:57:19;17.50;90.00
22337;DHT22;14992;50.844;4.418;2023-05-17T12:59:50;17.40;90.40
22337;DHT22;14992;50.844;4.418;2023-05-17T13:02:20;17.40;91.30
22337;DHT22;14992;50.844;4.418;2023-05-17T13:04:51;17.50;90.10
22337;DHT22;14992;50.844;4.418;2023-05-17T13:07:21;17.60;89.50
22337;DHT22;14992;50.844;4.418;2023-05-17T13:09:51;17.50;90.30
22337;DHT22;14992;50.844;4.418;2023-05-17T13:12:22;17.50;88.10
22337;DHT22;14992;50.844;4.418;2023-05-17T13:14:52;17.50;89.50
22337;DHT22;14992;50.844;4.418;2023-05-17T13:17:24;17.80;87.80
22337;DHT22;14992;50.844;4.418;2023-05-17T13:19:55;18.00;86.60
22337;DHT22;14992;50.844;4.418;2023-05-17T13:22:25;17.70;85.00
22337;DHT22;14992;50.844;4.418;2023-05-17T13:24:55;17.70;85.40
22337;DHT22;14992;50.844;4.418;2023-05-17T13:27:24;17.60;85.30
22337;DHT22;14992;50.844;4.418;2023-05-17T13:29:53;17.40;85.30
22337;DHT22;14992;50.844;4.418;2023-05-17T13:32:22;17.50;86.80
22337;DHT22;14992;50.844;4.418;2023-05-17T13:34:51;17.80;84.30
22337;DHT22;14992;50.844;4.418;2023-05-17T13:37:22;17.80;85.10
22337;DHT22;14992;50.844;4.418;2023-05-17T13:39:51;17.70;83.70
22337;DHT22;14992;50.844;4.418;2023-05-17T13:42:22;17.60;84.50
22337;DHT22;14992;50.844;4.418;2023-05-17T13:44:51;18.10;83.70
22337;DHT22;14992;50.844;4.418;2023-05-17T13:47:20;18.00;82.80
22337;DHT22;14992;50.844;4.418;2023-05-17T13:49:49;18.00;81.60
22337;DHT22;14992;50.844;4.418;2023-05-17T13:52:18;18.10;83.90
22337;DHT22;14992;50.844;4.418;2023-05-17T13:54:48;18.00;83.50
22337;DHT22;14992;50.844;4.418;2023-05-17T13:57:17;18.20;85.70
22337;DHT22;14992;50.844;4.418;2023-05-17T13:59:46;18.40;83.20
22337;DHT22;14992;50.844;4.418;2023-05-17T14:02:15;18.70;83.20
22337;DHT22;14992;50.844;4.418;2023-05-17T14:04:44;18.50;83.30
22337;DHT22;14992;50.844;4.418;2023-05-17T14:07:13;18.30;84.10
22337;DHT22;14992;50.844;4.418;2023-05-17T14:09:42;18.40;84.70
22337;DHT22;14992;50.844;4.418;2023-05-17T14:12:12;18.80;82.80
22337;DHT22;14992;50.844;4.418;2023-05-17T14:14:41;18.70;81.50
22337;DHT22;14992;50.844;4.418;2023-05-17T14:17:11;18.50;79.80
22337;DHT22;14992;50.844;4.418;2023-05-17T14:19:40;18.20;80.40
22337;DHT22;14992;50.844;4.418;2023-05-17T14:22:09;18.20;80.90
22337;DHT22;14992;50.844;4.418;2023-05-17T14:24:40;18.00;82.10
22337;DHT22;14992;50.844;4.418;2023-05-17T14:27:09;17.80;85.10
22337;DHT22;14992;50.844;4.418;2023-05-17T14:29:39;18.10;82.90
22337;DHT22;14992;50.844;4.418;2023-05-17T14:32:08;18.30;83.80
22337;DHT22;14992;50.844;4.418;2023-05-17T14:34:39;18.30;81.70
22337;DHT22;14992;50.844;4.418;2023-05-17T14:37:08;18.60;81.10
22337;DHT22;14992;50.844;4.418;2023-05-17T14:39:37;18.60;81.30
22337;DHT22;14992;50.844;4.418;2023-05-17T14:42:06;18.70;80.20
22337;DHT22;14992;50.844;4.418;2023-05-17T14:44:35;18.70;80.40
22337;DHT22;14992;50.844;4.418;2023-05-17T14:47:07;18.50;81.60
22337;DHT22;14992;50.844;4.418;2023-05-17T14:49:36;18.20;83.30
22337;DHT22;14992;50.844;4.418;2023-05-17T14:52:05;17.80;84.40
22337;DHT22;14992;50.844;4.418;2023-05-17T14:54:34;17.80;86.40
22337;DHT22;14992;50.844;4.418;2023-05-17T14:57:04;18.00;85.00
22337;DHT22;14992;50.844;4.418;2023-05-17T14:59:34;17.80;85.20
22337;DHT22;14992;50.844;4.418;2023-05-17T15:02:04;17.70;86.30
22337;DHT22;14992;50.844;4.418;2023-05-17T15:04:34;17.40;86.00
22337;DHT22;14992;50.844;4.418;2023-05-17T15:07:04;17.60;86.50
22337;DHT22;14992;50.844;4.418;2023-05-17T15:09:38;17.70;85.10
22337;DHT22;14992;50.844;4.418;2023-05-17T15:12:08;17.70;81.50
22337;DHT22;14992;50.844;4.418;2023-05-17T15:14:40;17.90;83.10
22337;DHT22;14992;50.844;4.418;2023-05-17T15:17:09;18.00;81.90
22337;DHT22;14992;50.844;4.418;2023-05-17T15:19:40;18.20;80.70
22337;DHT22;14992;50.844;4.418;2023-05-17T15:22:09;18.20;79.10
22337;DHT22;14992;50.844;4.418;2023-05-17T15:24:38;18.20;79.40
22337;DHT22;14992;50.844;4.418;2023-05-17T15:27:07;18.50;79.30
22337;DHT22;14992;50.844;4.418;2023-05-17T15:29:39;18.80;80.00
22337;DHT22;14992;50.844;4.418;2023-05-17T15:32:08;18.90;80.10
22337;DHT22;14992;50.844;4.418;2023-05-17T15:34:37;19.00;80.60
22337;DHT22;14992;50.844;4.418;2023-05-17T15:37:08;19.10;78.90
22337;DHT22;14992;50.844;4.418;2023-05-17T15:39:37;18.80;79.50
22337;DHT22;14992;50.844;4.418;2023-05-17T15:42:06;18.70;78.70
22337;DHT22;14992;50.844;4.418;2023-05-17T15:44:35;18.50;79.40
22337;DHT22;14992;50.844;4.418;2023-05-17T15:47:04;18.80;80.30
22337;DHT22;14992;50.844;4.418;2023-05-17T15:49:33;19.20;80.50
22337;DHT22;14992;50.844;4.418;2023-05-17T15:52:02;19.10;79.80
22337;DHT22;14992;50.844;4.418;2023-05-17T15:54:32;18.80;81.50
22337;DHT22;14992;50.844;4.418;2023-05-17T15:57:01;18.80;80.90
22337;DHT22;14992;50.844;4.418;2023-05-17T15:59:30;18.70;81.10
22337;DHT22;14992;50.844;4.418;2023-05-17T16:01:59;18.60;80.70
22337;DHT22;14992;50.844;4.418;2023-05-17T16:04:28;18.60;81.20
22337;DHT22;14992;50.844;4.418;2023-05-17T16:06:57;18.40;80.60
22337;DHT22;14992;50.844;4.418;2023-05-17T16:09:27;18.30;82.00
22337;DHT22;14992;50.844;4.418;2023-05-17T16:11:57;18.40;83.90
22337;DHT22;14992;50.844;4.418;2023-05-17T16:14:26;18.00;86.00
22337;DHT22;14992;50.844;4.418;2023-05-17T16:16:55;17.80;87.50
22337;DHT22;14992;50.844;4.418;2023-05-17T16:19:24;17.80;87.20